Terminal Aerodrome Forecast
Issued by NWS

Current Version | Previous Version | Text Only | Print | Product List | Glossary Off
Versions: 1 2 3 4 5 6 7 8 9 10 11 12 13 14 15 16 17 18 19 20 21 22 23 24 25

000
FTUS41 KILN 020520
TAFLCK
TAF
KLCK 020520Z 0206/0306 24003KT P6SM SCT080 BKN250
     FM021500 24012KT P6SM FEW050 SCT200
     FM030000 20008KT P6SM SCT200=

USA.gov is the U.S. government's official web portal to all federal, state and local government web resources and services.